sensor_id;sensor_type;location;lat;lon;timestamp;pressure;altitude;pressure_sealevel;temperature;humidity
67397;BME280;57728;50.448;18.824;2022-11-20T00:01:31;97562.44;;;-4.92;69.22
67397;BME280;57728;50.448;18.824;2022-11-20T00:03:34;97498.53;;;-5.34;69.40
67397;BME280;57728;50.448;18.824;2022-11-20T00:05:36;97546.25;;;-4.96;69.42
67397;BME280;57728;50.448;18.824;2022-11-20T00:07:38;97548.47;;;-5.00;69.66
67397;BME280;57728;50.448;18.824;2022-11-20T00:09:40;97558.00;;;-4.92;69.77
67397;BME280;57728;50.448;18.824;2022-11-20T00:11:41;97493.91;;;-5.32;69.91
67397;BME280;57728;50.448;18.824;2022-11-20T00:13:43;97533.25;;;-5.04;70.00
67397;BME280;57728;50.448;18.824;2022-11-20T00:15:46;97511.00;;;-5.15;70.08
67397;BME280;57728;50.448;18.824;2022-11-20T00:17:47;97504.50;;;-5.19;70.14
67397;BME280;57728;50.448;18.824;2022-11-20T00:19:49;97554.38;;;-4.91;70.17
67397;BME280;57728;50.448;18.824;2022-11-20T00:21:51;97531.69;;;-4.99;70.38
67397;BME280;57728;50.448;18.824;2022-11-20T00:23:56;97524.78;;;-5.06;70.40
67397;BME280;57728;50.448;18.824;2022-11-20T00:26:05;97526.59;;;-5.07;70.53
67397;BME280;57728;50.448;18.824;2022-11-20T00:28:09;97545.06;;;-4.93;70.81
67397;BME280;57728;50.448;18.824;2022-11-20T00:30:11;97515.47;;;-5.09;70.71
67397;BME280;57728;50.448;18.824;2022-11-20T00:32:13;97464.19;;;-5.39;70.63
67397;BME280;57728;50.448;18.824;2022-11-20T00:34:15;97540.59;;;-4.93;70.60
67397;BME280;57728;50.448;18.824;2022-11-20T00:36:19;97544.44;;;-4.95;70.47
67397;BME280;57728;50.448;18.824;2022-11-20T00:38:22;97547.25;;;-4.97;70.48
67397;BME280;57728;50.448;18.824;2022-11-20T00:40:24;97529.41;;;-5.08;70.88
67397;BME280;57728;50.448;18.824;2022-11-20T00:42:25;97490.03;;;-5.36;70.81
67397;BME280;57728;50.448;18.824;2022-11-20T00:44:26;97543.78;;;-5.04;71.15
67397;BME280;57728;50.448;18.824;2022-11-20T00:46:28;97527.56;;;-5.14;71.46
67397;BME280;57728;50.448;18.824;2022-11-20T00:48:30;97545.59;;;-5.05;71.44
67397;BME280;57728;50.448;18.824;2022-11-20T00:50:32;97545.59;;;-5.05;71.83
67397;BME280;57728;50.448;18.824;2022-11-20T00:52:34;97532.00;;;-5.15;72.05
67397;BME280;57728;50.448;18.824;2022-11-20T00:54:35;97542.16;;;-5.05;72.27
67397;BME280;57728;50.448;18.824;2022-11-20T00:56:36;97542.97;;;-5.05;72.17
67397;BME280;57728;50.448;18.824;2022-11-20T00:58:41;97537.09;;;-5.07;72.29
67397;BME280;57728;50.448;18.824;2022-11-20T01:00:44;97528.41;;;-5.07;72.48
67397;BME280;57728;50.448;18.824;2022-11-20T01:02:46;97532.66;;;-5.06;72.61
67397;BME280;57728;50.448;18.824;2022-11-20T01:04:48;97468.56;;;-5.47;72.53
67397;BME280;57728;50.448;18.824;2022-11-20T01:06:49;97524.97;;;-5.08;72.51
67397;BME280;57728;50.448;18.824;2022-11-20T01:08:53;97524.56;;;-5.11;72.58
67397;BME280;57728;50.448;18.824;2022-11-20T01:11:04;97523.31;;;-5.15;72.80
67397;BME280;57728;50.448;18.824;2022-11-20T01:13:10;97515.97;;;-5.27;72.98
67397;BME280;57728;50.448;18.824;2022-11-20T01:15:33;97507.66;;;-5.30;73.05
67397;BME280;57728;50.448;18.824;2022-11-20T01:17:36;97528.50;;;-5.22;73.11
67397;BME280;57728;50.448;18.824;2022-11-20T01:19:37;97496.06;;;-5.42;73.37
67397;BME280;57728;50.448;18.824;2022-11-20T01:21:40;97504.81;;;-5.35;73.25
67397;BME280;57728;50.448;18.824;2022-11-20T01:23:46;97465.66;;;-5.58;73.46
67397;BME280;57728;50.448;18.824;2022-11-20T01:25:48;97483.31;;;-5.45;73.65
67397;BME280;57728;50.448;18.824;2022-11-20T01:27:50;97480.09;;;-5.48;73.59
67397;BME280;57728;50.448;18.824;2022-11-20T01:29:52;97516.78;;;-5.26;73.45
67397;BME280;57728;50.448;18.824;2022-11-20T01:31:53;97513.13;;;-5.25;73.52
67397;BME280;57728;50.448;18.824;2022-11-20T01:33:57;97509.91;;;-5.27;73.58
67397;BME280;57728;50.448;18.824;2022-11-20T01:36:06;97522.22;;;-5.28;73.74
67397;BME280;57728;50.448;18.824;2022-11-20T01:38:08;97516.34;;;-5.30;73.78
67397;BME280;57728;50.448;18.824;2022-11-20T01:40:10;97503.56;;;-5.39;73.64
67397;BME280;57728;50.448;18.824;2022-11-20T01:42:12;97503.00;;;-5.35;73.73
67397;BME280;57728;50.448;18.824;2022-11-20T01:47:05;97500.31;;;-5.41;73.78
67397;BME280;57728;50.448;18.824;2022-11-20T01:49:18;97497.25;;;-5.45;73.82
67397;BME280;57728;50.448;18.824;2022-11-20T01:51:42;97413.09;;;-6.00;73.87
67397;BME280;57728;50.448;18.824;2022-11-20T01:53:52;97431.94;;;-5.89;74.01
67397;BME280;57728;50.448;18.824;2022-11-20T01:56:03;97471.94;;;-5.59;74.17
67397;BME280;57728;50.448;18.824;2022-11-20T01:58:09;97483.91;;;-5.50;74.25
67397;BME280;57728;50.448;18.824;2022-11-20T02:00:14;97485.72;;;-5.51;74.29
67397;BME280;57728;50.448;18.824;2022-11-20T02:02:20;97488.50;;;-5.52;74.32
67397;BME280;57728;50.448;18.824;2022-11-20T02:04:23;97473.13;;;-5.62;74.45
67397;BME280;57728;50.448;18.824;2022-11-20T02:06:30;97474.56;;;-5.59;74.59
67397;BME280;57728;50.448;18.824;2022-11-20T02:08:38;97458.53;;;-5.71;74.81
67397;BME280;57728;50.448;18.824;2022-11-20T02:10:41;97483.47;;;-5.54;75.18
67397;BME280;57728;50.448;18.824;2022-11-20T02:12:42;97489.53;;;-5.53;75.08
67397;BME280;57728;50.448;18.824;2022-11-20T02:15:04;97486.91;;;-5.53;75.18
67397;BME280;57728;50.448;18.824;2022-11-20T02:17:05;97492.94;;;-5.53;75.18
67397;BME280;57728;50.448;18.824;2022-11-20T02:19:11;97496.59;;;-5.54;75.38
67397;BME280;57728;50.448;18.824;2022-11-20T02:21:44;97411.38;;;-6.14;75.21
67397;BME280;57728;50.448;18.824;2022-11-20T02:26:02;97436.31;;;-5.97;75.52
67397;BME280;57728;50.448;18.824;2022-11-20T02:28:11;97499.78;;;-5.58;75.64
67397;BME280;57728;50.448;18.824;2022-11-20T02:30:12;97498.13;;;-5.66;75.77
67397;BME280;57728;50.448;18.824;2022-11-20T02:32:24;97423.03;;;-6.16;76.06
67397;BME280;57728;50.448;18.824;2022-11-20T02:34:33;97493.25;;;-5.69;75.85
67397;BME280;57728;50.448;18.824;2022-11-20T02:36:36;97506.84;;;-5.59;76.07
67397;BME280;57728;50.448;18.824;2022-11-20T02:38:43;97470.97;;;-5.80;76.05
67397;BME280;57728;50.448;18.824;2022-11-20T02:40:45;97489.63;;;-5.68;75.98
67397;BME280;57728;50.448;18.824;2022-11-20T02:42:46;97462.66;;;-5.83;75.75
67397;BME280;57728;50.448;18.824;2022-11-20T02:44:48;97490.63;;;-5.69;75.72
67397;BME280;57728;50.448;18.824;2022-11-20T02:46:49;97514.28;;;-5.62;75.84
67397;BME280;57728;50.448;18.824;2022-11-20T02:48:50;97516.47;;;-5.66;75.94
67397;BME280;57728;50.448;18.824;2022-11-20T02:50:52;97501.00;;;-5.82;76.04
67397;BME280;57728;50.448;18.824;2022-11-20T02:52:54;97458.63;;;-6.07;76.13
67397;BME280;57728;50.448;18.824;2022-11-20T02:54:55;97524.72;;;-5.69;76.17
67397;BME280;57728;50.448;18.824;2022-11-20T02:56:57;97523.69;;;-5.75;75.89
67397;BME280;57728;50.448;18.824;2022-11-20T02:58:58;97517.19;;;-5.79;75.88
67397;BME280;57728;50.448;18.824;2022-11-20T03:00:59;97491.59;;;-5.98;75.76
67397;BME280;57728;50.448;18.824;2022-11-20T03:03:02;97483.84;;;-6.06;75.87
67397;BME280;57728;50.448;18.824;2022-11-20T03:05:04;97501.72;;;-5.95;75.75
67397;BME280;57728;50.448;18.824;2022-11-20T03:07:07;97523.75;;;-5.89;75.85
67397;BME280;57728;50.448;18.824;2022-11-20T03:09:10;97492.91;;;-6.09;75.73
67397;BME280;57728;50.448;18.824;2022-11-20T03:11:11;97488.84;;;-6.11;75.89
67397;BME280;57728;50.448;18.824;2022-11-20T03:13:12;97514.03;;;-5.95;76.01
67397;BME280;57728;50.448;18.824;2022-11-20T03:15:14;97517.63;;;-5.97;76.04
67397;BME280;57728;50.448;18.824;2022-11-20T03:17:16;97453.47;;;-6.43;76.02
67397;BME280;57728;50.448;18.824;2022-11-20T03:19:18;97522.44;;;-6.00;76.23
67397;BME280;57728;50.448;18.824;2022-11-20T03:21:20;97519.00;;;-6.01;76.19
67397;BME280;57728;50.448;18.824;2022-11-20T03:23:21;97521.81;;;-6.02;76.33
67397;BME280;57728;50.448;18.824;2022-11-20T03:25:22;97496.84;;;-6.19;76.28
67397;BME280;57728;50.448;18.824;2022-11-20T03:27:24;97506.31;;;-6.18;76.20
67397;BME280;57728;50.448;18.824;2022-11-20T03:29:25;97505.06;;;-6.23;76.44
67397;BME280;57728;50.448;18.824;2022-11-20T03:31:33;97517.06;;;-6.13;76.55
67397;BME280;57728;50.448;18.824;2022-11-20T03:33:37;97419.22;;;-6.78;76.50
67397;BME280;57728;50.448;18.824;2022-11-20T03:35:39;97464.50;;;-6.48;76.50
67397;BME280;57728;50.448;18.824;2022-11-20T03:37:40;97517.06;;;-6.13;76.61
67397;BME280;57728;50.448;18.824;2022-11-20T03:39:42;97522.50;;;-6.15;76.46
67397;BME280;57728;50.448;18.824;2022-11-20T03:41:44;97529.38;;;-6.14;76.38
67397;BME280;57728;50.448;18.824;2022-11-20T03:44:00;97521.50;;;-6.14;76.42
67397;BME280;57728;50.448;18.824;2022-11-20T03:46:04;97521.69;;;-6.15;76.53
67397;BME280;57728;50.448;18.824;2022-11-20T03:48:06;97504.63;;;-6.26;76.38
67397;BME280;57728;50.448;18.824;2022-11-20T03:50:09;97520.88;;;-6.16;76.55
67397;BME280;57728;50.448;18.824;2022-11-20T03:52:14;97516.63;;;-6.17;76.54
67397;BME280;57728;50.448;18.824;2022-11-20T03:54:15;97512.56;;;-6.19;76.59
67397;BME280;57728;50.448;18.824;2022-11-20T03:56:19;97448.91;;;-6.56;76.74
67397;BME280;57728;50.448;18.824;2022-11-20T03:58:24;97462.25;;;-6.51;76.82
67397;BME280;57728;50.448;18.824;2022-11-20T04:00:27;97514.56;;;-6.22;77.00
67397;BME280;57728;50.448;18.824;2022-11-20T04:02:29;97498.34;;;-6.32;76.89
67397;BME280;57728;50.448;18.824;2022-11-20T04:04:31;97517.19;;;-6.22;77.03
67397;BME280;57728;50.448;18.824;2022-11-20T04:06:37;97506.88;;;-6.23;76.95
67397;BME280;57728;50.448;18.824;2022-11-20T04:08:40;97514.75;;;-6.23;76.83
67397;BME280;57728;50.448;18.824;2022-11-20T04:10:42;97514.75;;;-6.23;76.73
67397;BME280;57728;50.448;18.824;2022-11-20T04:12:44;97482.84;;;-6.48;76.65
67397;BME280;57728;50.448;18.824;2022-11-20T04:14:45;97524.00;;;-6.27;76.80
67397;BME280;57728;50.448;18.824;2022-11-20T04:16:47;97501.53;;;-6.36;77.08
67397;BME280;57728;50.448;18.824;2022-11-20T04:19:00;97510.25;;;-6.29;76.87
67397;BME280;57728;50.448;18.824;2022-11-20T04:21:05;97477.31;;;-6.53;76.84
67397;BME280;57728;50.448;18.824;2022-11-20T04:23:07;97507.00;;;-6.31;76.86
67397;BME280;57728;50.448;18.824;2022-11-20T04:25:09;97506.38;;;-6.33;76.76
67397;BME280;57728;50.448;18.824;2022-11-20T04:27:10;97504.56;;;-6.33;76.82
67397;BME280;57728;50.448;18.824;2022-11-20T04:29:13;97502.56;;;-6.31;76.67
67397;BME280;57728;50.448;18.824;2022-11-20T04:31:19;97494.72;;;-6.31;76.61
67397;BME280;57728;50.448;18.824;2022-11-20T04:33:22;97497.78;;;-6.27;76.51
67397;BME280;57728;50.448;18.824;2022-11-20T04:35:25;97480.00;;;-6.32;76.38
67397;BME280;57728;50.448;18.824;2022-11-20T04:37:26;97496.41;;;-6.23;76.43
67397;BME280;57728;50.448;18.824;2022-11-20T04:39:27;97488.97;;;-6.19;76.23
67397;BME280;57728;50.448;18.824;2022-11-20T04:41:34;97488.78;;;-6.18;76.20
67397;BME280;57728;50.448;18.824;2022-11-20T04:43:36;97453.38;;;-6.29;76.41
67397;BME280;57728;50.448;18.824;2022-11-20T04:45:38;97477.34;;;-6.10;76.43
67397;BME280;57728;50.448;18.824;2022-11-20T04:47:40;97470.94;;;-6.08;76.22
67397;BME280;57728;50.448;18.824;2022-11-20T04:49:41;97474.16;;;-6.06;75.80
67397;BME280;57728;50.448;18.824;2022-11-20T04:51:42;97474.59;;;-6.02;76.01
67397;BME280;57728;50.448;18.824;2022-11-20T04:53:44;97460.44;;;-6.08;75.70
67397;BME280;57728;50.448;18.824;2022-11-20T04:55:46;97478.28;;;-5.97;75.44
67397;BME280;57728;50.448;18.824;2022-11-20T04:57:50;97427.16;;;-6.29;75.46
67397;BME280;57728;50.448;18.824;2022-11-20T05:00:00;97434.91;;;-6.21;75.15
67397;BME280;57728;50.448;18.824;2022-11-20T05:02:01;97471.25;;;-5.96;75.45
67397;BME280;57728;50.448;18.824;2022-11-20T05:04:02;97435.78;;;-6.13;75.35
67397;BME280;57728;50.448;18.824;2022-11-20T05:06:08;97459.50;;;-6.00;75.31
67397;BME280;57728;50.448;18.824;2022-11-20T05:08:10;97456.44;;;-6.04;75.33
67397;BME280;57728;50.448;18.824;2022-11-20T05:10:11;97453.03;;;-6.04;75.52
67397;BME280;57728;50.448;18.824;2022-11-20T05:12:14;97439.72;;;-6.03;75.88
67397;BME280;57728;50.448;18.824;2022-11-20T05:14:16;97438.69;;;-6.02;75.70
67397;BME280;57728;50.448;18.824;2022-11-20T05:16:22;97439.50;;;-6.01;75.49
67397;BME280;57728;50.448;18.824;2022-11-20T05:18:25;97442.75;;;-5.99;75.57
67397;BME280;57728;50.448;18.824;2022-11-20T05:20:26;97440.75;;;-5.97;75.28
67397;BME280;57728;50.448;18.824;2022-11-20T05:22:28;97440.94;;;-5.99;75.35
67397;BME280;57728;50.448;18.824;2022-11-20T05:24:29;97440.75;;;-5.97;75.68
67397;BME280;57728;50.448;18.824;2022-11-20T05:26:31;97440.75;;;-5.97;75.51
67397;BME280;57728;50.448;18.824;2022-11-20T05:28:33;97439.78;;;-5.96;75.41
67397;BME280;57728;50.448;18.824;2022-11-20T05:30:36;97438.56;;;-5.93;75.55
67397;BME280;57728;50.448;18.824;2022-11-20T05:32:37;97421.16;;;-6.01;75.26
67397;BME280;57728;50.448;18.824;2022-11-20T05:34:38;97437.75;;;-5.94;75.59
67397;BME280;57728;50.448;18.824;2022-11-20T05:36:40;97436.94;;;-5.94;75.49
67397;BME280;57728;50.448;18.824;2022-11-20T05:38:43;97443.63;;;-5.92;75.43
67397;BME280;57728;50.448;18.824;2022-11-20T05:40:45;97433.53;;;-5.95;75.18
67397;BME280;57728;50.448;18.824;2022-11-20T05:42:48;97443.81;;;-5.93;75.12
67397;BME280;57728;50.448;18.824;2022-11-20T05:44:49;97444.00;;;-5.95;75.07
67397;BME280;57728;50.448;18.824;2022-11-20T05:46:50;97445.81;;;-5.95;75.41
67397;BME280;57728;50.448;18.824;2022-11-20T05:48:53;97451.25;;;-5.97;74.91
67397;BME280;57728;50.448;18.824;2022-11-20T05:50:57;97449.81;;;-6.00;74.72
67397;BME280;57728;50.448;18.824;2022-11-20T05:53:03;97441.22;;;-6.15;74.89
67397;BME280;57728;50.448;18.824;2022-11-20T05:55:05;97448.94;;;-6.07;75.02
67397;BME280;57728;50.448;18.824;2022-11-20T05:57:08;97439.97;;;-6.19;75.55
67397;BME280;57728;50.448;18.824;2022-11-20T05:59:09;97452.75;;;-6.09;75.68
67397;BME280;57728;50.448;18.824;2022-11-20T06:01:20;97433.13;;;-6.20;75.76
67397;BME280;57728;50.448;18.824;2022-11-20T06:03:23;97439.28;;;-6.06;75.64
67397;BME280;57728;50.448;18.824;2022-11-20T06:05:24;97403.19;;;-6.26;76.13
67397;BME280;57728;50.448;18.824;2022-11-20T06:07:26;97422.72;;;-6.07;75.42
67397;BME280;57728;50.448;18.824;2022-11-20T06:09:27;97442.19;;;-5.94;75.73
67397;BME280;57728;50.448;18.824;2022-11-20T06:11:29;97436.13;;;-5.95;75.07
67397;BME280;57728;50.448;18.824;2022-11-20T06:13:31;97327.50;;;-6.63;75.07
67397;BME280;57728;50.448;18.824;2022-11-20T06:15:32;97439.81;;;-5.89;75.03
67397;BME280;57728;50.448;18.824;2022-11-20T06:17:35;97430.09;;;-5.95;75.00
67397;BME280;57728;50.448;18.824;2022-11-20T06:19:37;97436.81;;;-5.86;74.99
67397;BME280;57728;50.448;18.824;2022-11-20T06:21:38;97438.25;;;-5.84;74.88
67397;BME280;57728;50.448;18.824;2022-11-20T06:23:40;97433.38;;;-5.87;75.03
67397;BME280;57728;50.448;18.824;2022-11-20T06:25:43;97412.97;;;-5.91;74.74
67397;BME280;57728;50.448;18.824;2022-11-20T06:27:44;97430.19;;;-5.82;74.65
67397;BME280;57728;50.448;18.824;2022-11-20T06:29:45;97442.13;;;-5.80;74.72
67397;BME280;57728;50.448;18.824;2022-11-20T06:31:47;97432.00;;;-5.83;74.75
67397;BME280;57728;50.448;18.824;2022-11-20T06:33:50;97439.50;;;-5.80;74.83
67397;BME280;57728;50.448;18.824;2022-11-20T06:35:52;97433.81;;;-5.83;75.17
67397;BME280;57728;50.448;18.824;2022-11-20T06:37:57;97400.97;;;-6.01;75.11
67397;BME280;57728;50.448;18.824;2022-11-20T06:39:58;97417.00;;;-5.89;75.16
67397;BME280;57728;50.448;18.824;2022-11-20T06:41:59;97435.66;;;-5.77;74.95
67397;BME280;57728;50.448;18.824;2022-11-20T06:44:04;97430.66;;;-5.72;75.10
67397;BME280;57728;50.448;18.824;2022-11-20T06:46:06;97451.09;;;-5.61;74.78
67397;BME280;57728;50.448;18.824;2022-11-20T06:48:09;97448.09;;;-5.58;74.81
67397;BME280;57728;50.448;18.824;2022-11-20T06:50:12;97446.50;;;-5.52;74.78
67397;BME280;57728;50.448;18.824;2022-11-20T06:52:13;97426.91;;;-5.56;74.47
67397;BME280;57728;50.448;18.824;2022-11-20T06:54:15;97443.34;;;-5.41;74.34
67397;BME280;57728;50.448;18.824;2022-11-20T06:56:17;97435.31;;;-5.39;74.09
67397;BME280;57728;50.448;18.824;2022-11-20T06:58:18;97443.78;;;-5.37;74.04
67397;BME280;57728;50.448;18.824;2022-11-20T07:00:19;97436.53;;;-5.35;73.91
67397;BME280;57728;50.448;18.824;2022-11-20T07:02:21;97432.69;;;-5.33;73.90
67397;BME280;57728;50.448;18.824;2022-11-20T07:04:22;97417.53;;;-5.37;73.99
67397;BME280;57728;50.448;18.824;2022-11-20T07:06:24;97431.94;;;-5.27;73.79
67397;BME280;57728;50.448;18.824;2022-11-20T07:08:26;97433.19;;;-5.23;73.80
67397;BME280;57728;50.448;18.824;2022-11-20T07:10:27;97430.75;;;-5.17;73.69
67397;BME280;57728;50.448;18.824;2022-11-20T07:12:30;97430.00;;;-5.11;73.68
67397;BME280;57728;50.448;18.824;2022-11-20T07:14:32;97426.78;;;-5.07;73.60
67397;BME280;57728;50.448;18.824;2022-11-20T07:16:33;97410.41;;;-5.09;73.39
67397;BME280;57728;50.448;18.824;2022-11-20T07:18:35;97418.72;;;-4.99;73.80
67397;BME280;57728;50.448;18.824;2022-11-20T07:20:37;97325.41;;;-5.49;73.49
67397;BME280;57728;50.448;18.824;2022-11-20T07:22:38;97409.50;;;-4.81;73.50
67397;BME280;57728;50.448;18.824;2022-11-20T07:24:40;97411.56;;;-4.70;73.26
67397;BME280;57728;50.448;18.824;2022-11-20T07:26:42;97411.97;;;-4.60;73.29
67397;BME280;57728;50.448;18.824;2022-11-20T07:28:47;97306.34;;;-5.10;73.02
67397;BME280;57728;50.448;18.824;2022-11-20T07:30:53;97386.94;;;-4.42;72.44
67397;BME280;57728;50.448;18.824;2022-11-20T07:32:56;97410.84;;;-3.97;72.34
67397;BME280;57728;50.448;18.824;2022-11-20T07:34:58;97403.09;;;-3.59;71.56
67397;BME280;57728;50.448;18.824;2022-11-20T07:36:59;97416.41;;;-2.76;70.13
67397;BME280;57728;50.448;18.824;2022-11-20T07:39:01;97406.69;;;-2.12;68.05
67397;BME280;57728;50.448;18.824;2022-11-20T07:41:03;97404.94;;;-1.50;66.26
67397;BME280;57728;50.448;18.824;2022-11-20T07:43:04;97404.81;;;-0.82;64.63
67397;BME280;57728;50.448;18.824;2022-11-20T07:45:06;97404.13;;;-0.17;62.51
67397;BME280;57728;50.448;18.824;2022-11-20T07:47:08;97396.22;;;0.30;60.75
67397;BME280;57728;50.448;18.824;2022-11-20T07:49:10;97397.38;;;0.69;59.55
67397;BME280;57728;50.448;18.824;2022-11-20T07:51:12;97389.00;;;1.01;58.23
67397;BME280;57728;50.448;18.824;2022-11-20T07:53:14;97375.59;;;1.19;56.99
67397;BME280;57728;50.448;18.824;2022-11-20T07:55:21;97361.41;;;1.42;56.18
67397;BME280;57728;50.448;18.824;2022-11-20T07:57:23;97396.09;;;1.98;55.09
67397;BME280;57728;50.448;18.824;2022-11-20T07:59:24;97390.56;;;2.33;54.15
67397;BME280;57728;50.448;18.824;2022-11-20T08:01:26;97390.44;;;2.62;52.71
67397;BME280;57728;50.448;18.824;2022-11-20T08:03:28;97399.09;;;2.74;52.24
67397;BME280;57728;50.448;18.824;2022-11-20T08:05:30;97362.25;;;2.83;51.57
67397;BME280;57728;50.448;18.824;2022-11-20T08:07:40;97398.53;;;3.33;49.70
67397;BME280;57728;50.448;18.824;2022-11-20T08:09:43;97376.25;;;3.44;49.26
67397;BME280;57728;50.448;18.824;2022-11-20T08:11:44;97390.97;;;3.74;48.54
67397;BME280;57728;50.448;18.824;2022-11-20T08:14:04;97360.91;;;3.78;47.92
67397;BME280;57728;50.448;18.824;2022-11-20T08:16:16;97402.81;;;4.20;47.51
67397;BME280;57728;50.448;18.824;2022-11-20T08:18:17;97409.81;;;4.26;47.34
67397;BME280;57728;50.448;18.824;2022-11-20T08:20:19;97379.44;;;4.32;46.99
67397;BME280;57728;50.448;18.824;2022-11-20T08:22:21;97406.38;;;4.63;46.04
67397;BME280;57728;50.448;18.824;2022-11-20T08:24:22;97385.13;;;4.41;45.67
67397;BME280;57728;50.448;18.824;2022-11-20T08:26:27;97404.94;;;4.45;45.61
67397;BME280;57728;50.448;18.824;2022-11-20T08:28:29;97400.75;;;4.27;45.51
67397;BME280;57728;50.448;18.824;2022-11-20T08:30:34;97379.75;;;4.04;45.91
67397;BME280;57728;50.448;18.824;2022-11-20T08:32:36;97408.75;;;4.27;45.69
67397;BME280;57728;50.448;18.824;2022-11-20T08:34:39;97419.34;;;4.17;45.72
67397;BME280;57728;50.448;18.824;2022-11-20T08:36:40;97410.94;;;4.03;46.07
67397;BME280;57728;50.448;18.824;2022-11-20T08:38:42;97420.16;;;3.90;45.82
67397;BME280;57728;50.448;18.824;2022-11-20T08:40:49;97413.41;;;3.83;46.20
67397;BME280;57728;50.448;18.824;2022-11-20T08:43:11;97409.16;;;4.09;45.76
67397;BME280;57728;50.448;18.824;2022-11-20T08:45:12;97431.47;;;4.35;45.60
67397;BME280;57728;50.448;18.824;2022-11-20T08:47:14;97427.56;;;4.42;44.75
67397;BME280;57728;50.448;18.824;2022-11-20T08:49:16;97417.22;;;4.51;44.49
67397;BME280;57728;50.448;18.824;2022-11-20T08:51:19;97429.97;;;4.81;43.92
67397;BME280;57728;50.448;18.824;2022-11-20T08:53:23;97415.28;;;4.79;43.52
67397;BME280;57728;50.448;18.824;2022-11-20T08:55:24;97420.41;;;4.85;43.56
67397;BME280;57728;50.448;18.824;2022-11-20T08:57:26;97406.47;;;4.78;43.31
67397;BME280;57728;50.448;18.824;2022-11-20T08:59:28;97425.69;;;4.80;43.70
67397;BME280;57728;50.448;18.824;2022-11-20T09:01:29;97417.34;;;4.66;43.39
67397;BME280;57728;50.448;18.824;2022-11-20T09:03:30;97410.41;;;4.65;43.36
67397;BME280;57728;50.448;18.824;2022-11-20T09:05:33;97407.69;;;4.60;43.10
67397;BME280;57728;50.448;18.824;2022-11-20T09:07:34;97413.16;;;4.43;42.94
67397;BME280;57728;50.448;18.824;2022-11-20T09:09:35;97391.69;;;4.28;43.27
67397;BME280;57728;50.448;18.824;2022-11-20T09:11:37;97405.06;;;4.33;43.23
67397;BME280;57728;50.448;18.824;2022-11-20T09:13:38;97420.06;;;4.77;43.33
67397;BME280;57728;50.448;18.824;2022-11-20T09:15:40;97417.84;;;5.06;42.37
67397;BME280;57728;50.448;18.824;2022-11-20T09:17:42;97411.69;;;5.05;42.28
67397;BME280;57728;50.448;18.824;2022-11-20T09:19:43;97414.41;;;5.15;41.86
67397;BME280;57728;50.448;18.824;2022-11-20T09:21:44;97381.97;;;4.91;42.34
67397;BME280;57728;50.448;18.824;2022-11-20T09:23:46;97396.00;;;5.24;41.84
67397;BME280;57728;50.448;18.824;2022-11-20T09:25:48;97333.66;;;4.88;41.47
67397;BME280;57728;50.448;18.824;2022-11-20T09:27:57;97371.38;;;5.02;41.59
67397;BME280;57728;50.448;18.824;2022-11-20T09:29:59;97407.19;;;5.16;41.95
67397;BME280;57728;50.448;18.824;2022-11-20T09:32:01;97411.03;;;5.40;41.86
67397;BME280;57728;50.448;18.824;2022-11-20T09:34:02;97409.25;;;5.77;41.67
67397;BME280;57728;50.448;18.824;2022-11-20T09:36:04;97394.25;;;5.65;40.92
67397;BME280;57728;50.448;18.824;2022-11-20T09:38:06;97380.09;;;5.60;40.94
67397;BME280;57728;50.448;18.824;2022-11-20T09:40:20;97402.59;;;5.79;41.10
67397;BME280;57728;50.448;18.824;2022-11-20T09:42:39;97418.09;;;5.87;40.96
67397;BME280;57728;50.448;18.824;2022-11-20T09:47:11;97404.75;;;6.13;40.36
67397;BME280;57728;50.448;18.824;2022-11-20T09:50:15;97399.13;;;5.99;40.70
67397;BME280;57728;50.448;18.824;2022-11-20T09:52:52;97382.56;;;6.38;40.47
67397;BME280;57728;50.448;18.824;2022-11-20T09:55:10;97384.59;;;6.97;39.87
67397;BME280;57728;50.448;18.824;2022-11-20T09:57:34;97379.34;;;7.47;39.40
67397;BME280;57728;50.448;18.824;2022-11-20T09:59:48;97367.06;;;7.35;38.37
67397;BME280;57728;50.448;18.824;2022-11-20T10:01:59;97366.59;;;7.23;38.34
67397;BME280;57728;50.448;18.824;2022-11-20T10:04:15;97378.19;;;7.03;38.58
67397;BME280;57728;50.448;18.824;2022-11-20T10:06:24;97344.84;;;6.34;38.52
67397;BME280;57728;50.448;18.824;2022-11-20T10:13:52;97373.22;;;6.30;39.77
67397;BME280;57728;50.448;18.824;2022-11-20T10:25:52;97359.78;;;6.61;39.79
67397;BME280;57728;50.448;18.824;2022-11-20T10:28:19;97351.22;;;6.54;40.54
67397;BME280;57728;50.448;18.824;2022-11-20T10:31:08;97340.03;;;6.26;40.99
67397;BME280;57728;50.448;18.824;2022-11-20T10:33:21;97345.13;;;6.38;41.34
67397;BME280;57728;50.448;18.824;2022-11-20T10:37:31;97326.06;;;6.55;41.09
67397;BME280;57728;50.448;18.824;2022-11-20T10:39:50;97327.69;;;6.46;41.06
67397;BME280;57728;50.448;18.824;2022-11-20T10:41:54;97332.28;;;5.79;42.42
67397;BME280;57728;50.448;18.824;2022-11-20T10:44:24;97339.41;;;5.32;43.63
67397;BME280;57728;50.448;18.824;2022-11-20T10:47:21;97341.84;;;5.34;43.81
67397;BME280;57728;50.448;18.824;2022-11-20T10:49:22;97348.94;;;5.03;44.21
67397;BME280;57728;50.448;18.824;2022-11-20T10:51:37;97326.66;;;4.77;45.40
67397;BME280;57728;50.448;18.824;2022-11-20T10:54:01;97348.19;;;4.60;45.57
67397;BME280;57728;50.448;18.824;2022-11-20T10:56:17;97350.06;;;4.59;46.90
67397;BME280;57728;50.448;18.824;2022-11-20T11:00:49;97303.38;;;5.40;45.52
67397;BME280;57728;50.448;18.824;2022-11-20T11:02:53;97324.78;;;5.71;45.22
67397;BME280;57728;50.448;18.824;2022-11-20T11:04:55;97321.88;;;5.82;44.82
67397;BME280;57728;50.448;18.824;2022-11-20T11:07:30;97317.00;;;6.40;44.36
67397;BME280;57728;50.448;18.824;2022-11-20T11:09:52;97317.69;;;6.82;43.35
67397;BME280;57728;50.448;18.824;2022-11-20T11:11:54;97308.28;;;7.00;42.72
67397;BME280;57728;50.448;18.824;2022-11-20T11:14:06;97321.00;;;7.28;42.84
67397;BME280;57728;50.448;18.824;2022-11-20T11:16:51;97312.41;;;7.76;41.98
67397;BME280;57728;50.448;18.824;2022-11-20T11:19:13;97306.50;;;8.08;40.66
67397;BME280;57728;50.448;18.824;2022-11-20T11:21:26;97311.81;;;8.13;40.83
67397;BME280;57728;50.448;18.824;2022-11-20T11:23:38;97254.84;;;7.63;40.98